Terminal Aerodrome Forecast
Issued by NWS

Home | Current Version | Previous Version | Text Only | Print | Product List | Glossary On
Versions: 1 2 3 4 5 6 7 8 9 10 11 12 13 14 15 16 17 18 19
000
FTUS45 KRIW 191800 AAA
TAFJAC
TAF AMD
KJAC 191828Z 1918/2018 21009KT P6SM -SN SCT020 BKN040
     FM192100 22011KT 6SM -SN BKN020
     FM200400 22007KT 5SM -SN SCT018 OVC035
     FM201400 VRB05KT P6SM VCSH SCT030 BKN050
      AMD LTD TO CLD VIS AND WIND=

USA.gov is the U.S. government's official web portal to all federal, state and local government web resources and services.